createdAt,value
2023-05-15T00:00:11.301Z,60.19
2023-05-15T00:02:39.987Z,60.17
2023-05-15T00:05:09.898Z,60.24
2023-05-15T00:07:38.568Z,60.65
2023-05-15T00:10:07.757Z,61.09
2023-05-15T00:12:35.347Z,64.67
2023-05-15T00:15:03.121Z,60.99
2023-05-15T00:17:31.393Z,60.53
2023-05-15T00:20:00.524Z,60.72
2023-05-15T00:22:29.639Z,65.02
2023-05-15T00:24:57.191Z,65.10
2023-05-15T00:27:25.043Z,61.15
2023-05-15T00:29:52.776Z,60.96
2023-05-15T00:32:20.578Z,60.90
2023-05-15T00:34:48.348Z,61.68
2023-05-15T00:37:16.180Z,61.68
2023-05-15T00:39:45.418Z,61.50
2023-05-15T00:42:13.266Z,62.31
2023-05-15T00:44:42.203Z,62.54
2023-05-15T00:47:12.065Z,62.58
2023-05-15T00:49:40.038Z,62.71
2023-05-15T00:52:08.869Z,62.85
2023-05-15T00:54:36.690Z,62.82
2023-05-15T00:57:07.165Z,62.98
2023-05-15T00:59:35.042Z,62.95
2023-05-15T01:02:02.878Z,63.09
2023-05-15T01:04:30.757Z,63.64
2023-05-15T01:07:01.248Z,63.40
2023-05-15T01:09:31.378Z,63.56
2023-05-15T01:12:00.529Z,63.62
2023-05-15T01:14:29.544Z,67.38
2023-05-15T01:16:58.966Z,63.37
2023-05-15T01:19:26.927Z,63.43
2023-05-15T01:22:26.004Z,65.21
2023-05-15T01:25:09.175Z,67.96
2023-05-15T01:27:38.694Z,63.76
2023-05-15T01:30:12.527Z,64.03
2023-05-15T01:32:44.620Z,63.62
2023-05-15T01:35:15.681Z,63.89
2023-05-15T01:37:49.901Z,63.98
2023-05-15T01:40:19.747Z,64.24
2023-05-15T01:42:53.026Z,64.21
2023-05-15T01:45:23.018Z,64.65
2023-05-15T01:47:51.533Z,64.52
2023-05-15T01:50:20.733Z,64.42
2023-05-15T01:52:49.331Z,68.76
2023-05-15T01:55:17.153Z,64.73
2023-05-15T01:57:46.407Z,64.44
2023-05-15T02:00:16.465Z,64.69
2023-05-15T02:02:44.634Z,64.68
2023-05-15T02:05:13.535Z,65.04
2023-05-15T02:07:42.746Z,65.50
2023-05-15T02:10:10.972Z,68.68
2023-05-15T02:12:39.235Z,65.35
2023-05-15T02:15:09.204Z,65.40
2023-05-15T02:17:38.457Z,65.14
2023-05-15T02:20:10.122Z,64.96
2023-05-15T02:22:37.864Z,65.31
2023-05-15T02:25:07.545Z,65.42
2023-05-15T02:27:40.346Z,65.78
2023-05-15T02:30:21.897Z,65.50
2023-05-15T02:32:57.666Z,65.98
2023-05-15T02:35:33.710Z,65.62
2023-05-15T02:38:02.447Z,66.29
2023-05-15T02:40:30.591Z,65.81
2023-05-15T02:42:59.107Z,66.07
2023-05-15T02:45:27.293Z,65.65
2023-05-15T02:47:57.204Z,65.93
2023-05-15T02:50:25.363Z,66.18
2023-05-15T02:52:53.110Z,65.80
2023-05-15T02:55:21.014Z,66.57
2023-05-15T02:57:48.734Z,65.85
2023-05-15T03:00:17.560Z,65.98
2023-05-15T03:02:45.318Z,66.04
2023-05-15T03:05:14.439Z,66.26
2023-05-15T03:07:42.339Z,66.98
2023-05-15T03:10:13.327Z,67.01
2023-05-15T03:12:41.230Z,66.90
2023-05-15T03:15:09.570Z,66.35
2023-05-15T03:17:37.303Z,66.71
2023-05-15T03:20:05.858Z,66.62
2023-05-15T03:22:35.022Z,66.85
2023-05-15T03:25:02.824Z,66.88
2023-05-15T03:27:30.649Z,67.18
2023-05-15T03:29:58.427Z,66.92
2023-05-15T03:32:26.778Z,67.57
2023-05-15T03:34:56.510Z,67.54
2023-05-15T03:37:24.312Z,67.41
2023-05-15T03:39:53.410Z,67.40
2023-05-15T03:42:23.620Z,67.25
2023-05-15T03:44:51.639Z,67.28
2023-05-15T03:47:20.153Z,67.76
2023-05-15T03:49:48.008Z,67.79
2023-05-15T03:52:15.790Z,68.04
2023-05-15T03:54:43.904Z,67.88
2023-05-15T03:57:13.518Z,67.91
2023-05-15T03:59:41.485Z,68.32
2023-05-15T04:02:09.231Z,68.00
2023-05-15T04:04:37.568Z,68.24
2023-05-15T04:07:06.812Z,67.95
2023-05-15T04:09:34.602Z,67.94
2023-05-15T04:12:02.296Z,68.04
2023-05-15T04:14:31.348Z,68.32
2023-05-15T04:16:59.167Z,68.24
2023-05-15T04:19:26.889Z,68.05
2023-05-15T04:21:54.622Z,68.00
2023-05-15T04:24:22.314Z,68.64
2023-05-15T04:26:50.086Z,68.29
2023-05-15T04:29:17.899Z,69.07
2023-05-15T04:31:47.083Z,68.77
2023-05-15T04:34:14.723Z,71.22
2023-05-15T04:36:43.175Z,68.68
2023-05-15T04:39:11.131Z,68.81
2023-05-15T04:41:38.950Z,68.52
2023-05-15T04:44:07.145Z,68.71
2023-05-15T04:46:37.303Z,68.51
2023-05-15T04:49:06.983Z,68.87
2023-05-15T04:51:35.126Z,68.76
2023-05-15T04:54:03.356Z,68.45
2023-05-15T04:56:31.144Z,68.43
2023-05-15T04:58:58.993Z,68.26
2023-05-15T05:01:27.113Z,68.59
2023-05-15T05:03:54.989Z,68.40
2023-05-15T05:06:24.404Z,69.00
2023-05-15T05:08:52.115Z,68.79
2023-05-15T05:11:19.881Z,68.29
2023-05-15T05:13:47.653Z,68.81
2023-05-15T05:16:15.480Z,68.58
2023-05-15T05:18:43.278Z,68.53
2023-05-15T05:21:11.356Z,68.59
2023-05-15T05:23:40.461Z,68.15
2023-05-15T05:26:08.242Z,68.82
2023-05-15T05:28:36.017Z,68.13
2023-05-15T05:31:04.214Z,68.79
2023-05-15T05:33:32.020Z,68.38
2023-05-15T05:35:59.771Z,68.21
2023-05-15T05:38:27.771Z,68.77
2023-05-15T05:40:56.911Z,68.36
2023-05-15T05:43:24.485Z,69.59
2023-05-15T05:45:52.293Z,67.40
2023-05-15T05:48:20.479Z,67.51
2023-05-15T05:50:48.216Z,67.20
2023-05-15T05:53:18.460Z,66.81
2023-05-15T05:55:46.237Z,66.50
2023-05-15T05:58:24.827Z,66.75
2023-05-15T06:00:53.564Z,66.42
2023-05-15T06:03:22.265Z,66.42
2023-05-15T06:05:50.167Z,66.14
2023-05-15T06:08:18.449Z,66.15
2023-05-15T06:10:46.274Z,65.73
2023-05-15T06:13:15.672Z,65.67
2023-05-15T06:15:43.444Z,66.01
2023-05-15T06:18:11.160Z,65.87
2023-05-15T06:20:39.297Z,65.71
2023-05-15T06:23:07.073Z,66.09
2023-05-15T06:25:34.871Z,65.80
2023-05-15T06:28:02.677Z,65.18
2023-05-15T06:30:31.988Z,64.80
2023-05-15T06:33:00.021Z,64.73
2023-05-15T06:35:27.993Z,63.58
2023-05-15T06:37:57.134Z,63.60
2023-05-15T06:40:26.374Z,63.57
2023-05-15T06:42:54.366Z,63.84
2023-05-15T06:45:22.103Z,63.80
2023-05-15T06:47:51.234Z,63.51
2023-05-15T06:50:19.059Z,63.71
2023-05-15T06:52:46.810Z,63.04
2023-05-15T06:55:14.567Z,62.83
2023-05-15T06:57:42.318Z,63.06
2023-05-15T07:00:11.586Z,62.00
2023-05-15T07:02:39.595Z,62.38
2023-05-15T07:05:10.480Z,62.30
2023-05-15T07:07:38.253Z,61.95
2023-05-15T07:10:06.927Z,62.10
2023-05-15T07:12:34.656Z,62.45
2023-05-15T07:15:02.436Z,61.72
2023-05-15T07:17:30.256Z,62.22
2023-05-15T07:19:58.071Z,61.78
2023-05-15T07:22:28.005Z,61.86
2023-05-15T07:24:55.838Z,61.68
2023-05-15T07:27:23.614Z,61.77
2023-05-15T07:29:51.396Z,60.85
2023-05-15T07:32:19.901Z,60.22
2023-05-15T07:34:47.697Z,60.88
2023-05-15T07:37:16.872Z,60.87
2023-05-15T07:39:46.581Z,60.53
2023-05-15T07:42:14.468Z,60.85
2023-05-15T07:44:44.632Z,61.03
2023-05-15T07:47:15.301Z,58.80
2023-05-15T07:49:43.037Z,56.71
2023-05-15T07:52:10.828Z,58.00
2023-05-15T07:54:39.628Z,57.11
2023-05-15T07:57:08.818Z,55.93
2023-05-15T07:59:36.914Z,54.44
2023-05-15T08:02:05.024Z,53.71
2023-05-15T08:04:32.779Z,54.11
2023-05-15T08:07:00.612Z,54.65
2023-05-15T08:09:28.611Z,53.86
2023-05-15T08:11:57.196Z,52.96
2023-05-15T08:14:26.425Z,52.88
2023-05-15T08:16:54.227Z,51.61
2023-05-15T08:19:23.869Z,51.46
2023-05-15T08:21:51.918Z,51.52
2023-05-15T08:24:31.151Z,51.62
2023-05-15T08:26:58.914Z,51.33
2023-05-15T08:29:28.319Z,50.97
2023-05-15T08:31:56.085Z,50.80
2023-05-15T08:34:23.971Z,50.79
2023-05-15T08:36:52.298Z,50.49
2023-05-15T08:39:19.909Z,48.89
2023-05-15T08:41:52.311Z,49.57
2023-05-15T08:44:20.415Z,50.13
2023-05-15T08:46:50.281Z,50.31
2023-05-15T08:49:22.392Z,50.30
2023-05-15T08:51:50.198Z,50.79
2023-05-15T08:54:18.115Z,50.52
2023-05-15T08:56:46.238Z,50.72
2023-05-15T08:59:14.015Z,50.43
2023-05-15T09:01:41.825Z,50.96
2023-05-15T09:04:11.189Z,50.63
2023-05-15T09:06:39.645Z,50.53
2023-05-15T09:09:07.965Z,51.44
2023-05-15T09:11:36.595Z,51.29
2023-05-15T09:14:04.724Z,49.83
2023-05-15T09:16:32.528Z,51.54
2023-05-15T09:19:01.251Z,51.97
2023-05-15T09:21:32.212Z,51.67
2023-05-15T09:24:17.647Z,50.68
2023-05-15T09:26:45.937Z,51.66
2023-05-15T09:29:18.311Z,51.13
2023-05-15T09:31:48.147Z,50.67
2023-05-15T09:34:16.059Z,50.04
2023-05-15T09:36:45.947Z,50.54
2023-05-15T09:39:14.134Z,50.62
2023-05-15T09:41:44.026Z,50.28
2023-05-15T09:44:21.590Z,48.20
2023-05-15T09:46:50.307Z,50.65
2023-05-15T09:49:20.870Z,50.68
2023-05-15T09:51:50.772Z,49.99
2023-05-15T09:54:21.125Z,49.96
2023-05-15T09:56:49.841Z,49.70
2023-05-15T09:59:21.995Z,49.96
2023-05-15T10:01:51.634Z,49.35
2023-05-15T10:04:19.790Z,49.16
2023-05-15T10:06:49.080Z,49.09
2023-05-15T10:09:18.214Z,49.49
2023-05-15T10:11:53.011Z,48.58
2023-05-15T10:14:24.174Z,48.86
2023-05-15T10:16:52.247Z,49.55
2023-05-15T10:19:21.272Z,49.10
2023-05-15T10:21:49.463Z,48.86
2023-05-15T10:24:21.792Z,48.41
2023-05-15T10:26:50.435Z,47.56
2023-05-15T10:29:21.249Z,47.20
2023-05-15T10:31:50.113Z,47.25
2023-05-15T10:34:18.428Z,47.10
2023-05-15T10:36:46.540Z,46.02
2023-05-15T10:39:14.305Z,46.33
2023-05-15T10:41:44.137Z,46.05
2023-05-15T10:44:12.383Z,44.24
2023-05-15T10:46:40.235Z,44.64
2023-05-15T10:49:08.089Z,44.57
2023-05-15T10:51:39.610Z,44.51
2023-05-15T10:54:07.565Z,44.95
2023-05-15T10:56:35.418Z,44.03
2023-05-15T10:59:13.497Z,45.15
2023-05-15T11:01:42.206Z,43.67
2023-05-15T11:04:12.190Z,43.22
2023-05-15T11:06:41.883Z,43.10
2023-05-15T11:09:35.331Z,41.99
2023-05-15T11:12:04.042Z,42.28
2023-05-15T11:14:34.076Z,43.56
2023-05-15T11:17:04.260Z,43.04
2023-05-15T11:19:58.711Z,42.56
2023-05-15T11:22:35.926Z,39.85
2023-05-15T11:25:05.993Z,41.50
2023-05-15T11:27:39.524Z,42.05
2023-05-15T11:30:14.373Z,42.01
2023-05-15T11:32:46.867Z,41.34
2023-05-15T11:35:20.557Z,41.72
2023-05-15T11:37:49.698Z,41.50
2023-05-15T11:40:21.590Z,40.13
2023-05-15T11:43:03.842Z,39.71
2023-05-15T11:45:34.268Z,40.06
2023-05-15T11:48:04.188Z,40.80
2023-05-15T11:50:33.427Z,41.32
2023-05-15T11:53:05.129Z,40.15
2023-05-15T11:55:34.349Z,40.54
2023-05-15T11:58:02.286Z,40.32
2023-05-15T12:00:30.097Z,40.71
2023-05-15T12:02:59.379Z,39.98
2023-05-15T12:05:29.319Z,40.39
2023-05-15T12:07:57.113Z,40.35
2023-05-15T12:10:25.414Z,40.53
2023-05-15T12:12:53.354Z,40.09
2023-05-15T12:15:21.164Z,40.25
2023-05-15T12:17:48.966Z,39.82
2023-05-15T12:20:19.683Z,39.20
2023-05-15T12:22:47.558Z,40.42
2023-05-15T12:25:17.645Z,40.68
2023-05-15T12:27:45.589Z,39.86
2023-05-15T12:30:15.265Z,40.29
2023-05-15T12:32:43.608Z,40.09
2023-05-15T12:35:12.055Z,39.78
2023-05-15T12:37:42.412Z,40.12
2023-05-15T12:40:11.718Z,40.28
2023-05-15T12:42:40.857Z,40.62
2023-05-15T12:45:14.320Z,40.92
2023-05-15T12:47:43.847Z,40.33
2023-05-15T12:50:16.838Z,41.21
2023-05-15T12:52:52.337Z,41.01
2023-05-15T12:55:24.596Z,41.26
2023-05-15T12:57:52.912Z,41.40
2023-05-15T13:00:22.716Z,41.66
2023-05-15T13:02:51.836Z,42.04
2023-05-15T13:05:19.969Z,41.49
2023-05-15T13:07:49.265Z,41.53
2023-05-15T13:10:17.839Z,42.38
2023-05-15T13:12:45.904Z,41.97
2023-05-15T13:15:25.548Z,42.18
2023-05-15T13:17:56.498Z,42.83
2023-05-15T13:20:25.092Z,42.69
2023-05-15T13:22:54.402Z,42.48
2023-05-15T13:25:22.719Z,42.84
2023-05-15T13:27:50.885Z,42.60
2023-05-15T13:30:19.166Z,42.37
2023-05-15T13:32:47.162Z,42.73
2023-05-15T13:35:15.114Z,42.43
2023-05-15T13:37:43.250Z,42.31
2023-05-15T13:40:16.531Z,41.52
2023-05-15T13:42:44.840Z,40.95
2023-05-15T13:45:13.648Z,41.91
2023-05-15T13:47:41.645Z,41.63
2023-05-15T13:50:11.324Z,41.70
2023-05-15T13:52:39.407Z,41.24
2023-05-15T13:55:09.646Z,41.20
2023-05-15T13:57:38.856Z,41.32
2023-05-15T14:00:09.289Z,41.35
2023-05-15T14:02:37.152Z,41.45
2023-05-15T14:05:05.726Z,42.00
2023-05-15T14:07:33.334Z,42.40
2023-05-15T14:10:01.289Z,42.52
2023-05-15T14:12:29.099Z,42.05
2023-05-15T14:14:58.752Z,42.54
2023-05-15T14:17:27.836Z,42.60
2023-05-15T14:19:56.164Z,42.73
2023-05-15T14:22:25.078Z,42.79
2023-05-15T14:24:53.202Z,43.33
2023-05-15T14:27:21.581Z,43.88
2023-05-15T14:29:49.674Z,44.08
2023-05-15T14:32:19.040Z,43.72
2023-05-15T14:34:46.900Z,43.41
2023-05-15T14:37:14.656Z,43.74
2023-05-15T14:39:42.579Z,43.44
2023-05-15T14:42:10.401Z,43.36
2023-05-15T14:44:38.271Z,43.51
2023-05-15T14:47:08.136Z,43.44
2023-05-15T14:49:37.840Z,43.86
2023-05-15T14:52:08.473Z,43.80
2023-05-15T14:54:36.621Z,43.88
2023-05-15T14:57:04.855Z,44.58
2023-05-15T14:59:32.738Z,44.41
2023-05-15T15:02:00.752Z,45.24
2023-05-15T15:04:30.433Z,45.84
2023-05-15T15:06:59.652Z,46.66
2023-05-15T15:09:29.019Z,46.70
2023-05-15T15:11:57.231Z,46.82
2023-05-15T15:14:25.024Z,46.71
2023-05-15T15:16:52.779Z,46.58
2023-05-15T15:19:20.730Z,46.69
2023-05-15T15:21:48.702Z,46.77
2023-05-15T15:24:17.897Z,46.90
2023-05-15T15:26:45.631Z,46.68
2023-05-15T15:29:13.386Z,47.18
2023-05-15T15:31:41.144Z,46.73
2023-05-15T15:34:10.278Z,47.11
2023-05-15T15:36:44.108Z,47.23
2023-05-15T15:39:13.149Z,47.34
2023-05-15T15:41:42.574Z,47.13
2023-05-15T15:44:10.307Z,47.43
2023-05-15T15:46:38.120Z,47.69
2023-05-15T15:49:06.708Z,48.14
2023-05-15T15:51:34.519Z,48.59
2023-05-15T15:54:02.238Z,49.32
2023-05-15T15:56:30.047Z,49.55
2023-05-15T15:58:59.295Z,49.58
2023-05-15T16:01:27.126Z,50.05
2023-05-15T16:03:54.925Z,50.17
2023-05-15T16:06:22.691Z,50.23
2023-05-15T16:08:50.486Z,50.21
2023-05-15T16:11:18.590Z,50.25
2023-05-15T16:13:46.332Z,50.06
2023-05-15T16:16:15.865Z,50.36
2023-05-15T16:18:43.716Z,50.60
2023-05-15T16:21:12.046Z,50.77
2023-05-15T16:23:41.241Z,50.48
2023-05-15T16:26:09.633Z,50.68
2023-05-15T16:28:37.483Z,51.13
2023-05-15T16:31:05.751Z,50.84
2023-05-15T16:33:34.887Z,50.98
2023-05-15T16:36:05.061Z,50.97
2023-05-15T16:38:32.872Z,51.00
2023-05-15T16:41:00.603Z,50.74
2023-05-15T16:43:28.542Z,51.31
2023-05-15T16:45:56.391Z,51.02
2023-05-15T16:48:26.246Z,51.12
2023-05-15T16:50:55.451Z,50.83
2023-05-15T16:53:23.521Z,50.58
2023-05-15T16:55:51.303Z,51.12
2023-05-15T16:58:19.088Z,51.04
2023-05-15T17:00:47.114Z,51.73
2023-05-15T17:03:15.163Z,51.88
2023-05-15T17:05:43.425Z,51.84
2023-05-15T17:08:12.624Z,52.07
2023-05-15T17:10:40.540Z,52.16
2023-05-15T17:13:08.336Z,52.30
2023-05-15T17:15:36.208Z,52.70
2023-05-15T17:18:03.991Z,52.94
2023-05-15T17:20:31.874Z,53.33
2023-05-15T17:22:59.651Z,53.16
2023-05-15T17:25:29.079Z,53.76
2023-05-15T17:27:57.029Z,54.21
2023-05-15T17:30:25.060Z,54.47
2023-05-15T17:32:52.988Z,55.34
2023-05-15T17:35:21.306Z,56.78
2023-05-15T17:37:49.095Z,58.08
2023-05-15T17:40:16.991Z,58.95
2023-05-15T17:42:46.169Z,59.89
2023-05-15T17:45:13.957Z,61.87
2023-05-15T17:47:41.887Z,61.89
2023-05-15T17:50:10.552Z,62.85
2023-05-15T17:52:38.376Z,62.92
2023-05-15T17:55:07.271Z,63.14
2023-05-15T17:57:35.173Z,63.29
2023-05-15T18:00:05.844Z,63.31
2023-05-15T18:02:33.695Z,64.38
2023-05-15T18:05:01.411Z,64.37
2023-05-15T18:07:29.325Z,64.96
2023-05-15T18:09:57.204Z,65.05
2023-05-15T18:12:24.993Z,64.91
2023-05-15T18:14:52.797Z,64.81
2023-05-15T18:17:22.132Z,64.99
2023-05-15T18:19:49.871Z,64.71
2023-05-15T18:22:17.749Z,65.02
2023-05-15T18:24:45.678Z,65.60
2023-05-15T18:27:13.438Z,64.58
2023-05-15T18:29:41.232Z,65.41
2023-05-15T18:32:09.540Z,64.98
2023-05-15T18:34:38.718Z,65.08
2023-05-15T18:37:06.567Z,68.21
2023-05-15T18:39:34.339Z,64.92
2023-05-15T18:42:02.140Z,64.97
2023-05-15T18:44:32.299Z,65.07
2023-05-15T18:47:00.149Z,64.73
2023-05-15T18:49:29.097Z,64.81
2023-05-15T18:51:58.641Z,64.61
2023-05-15T18:54:26.650Z,64.44
2023-05-15T18:56:54.408Z,65.23
2023-05-15T18:59:22.341Z,64.93
2023-05-15T19:01:50.421Z,64.90
2023-05-15T19:04:18.207Z,64.96
2023-05-15T19:06:47.534Z,65.24
2023-05-15T19:09:18.064Z,64.75
2023-05-15T19:11:46.833Z,65.28
2023-05-15T19:14:15.730Z,65.32
2023-05-15T19:16:43.610Z,66.24
2023-05-15T19:19:11.456Z,65.53
2023-05-15T19:21:39.539Z,66.32
2023-05-15T19:24:07.865Z,65.63
2023-05-15T19:26:37.056Z,65.72
2023-05-15T19:29:04.724Z,68.19
2023-05-15T19:31:33.001Z,66.28
2023-05-15T19:34:01.008Z,65.81
2023-05-15T19:36:28.888Z,66.29
2023-05-15T19:38:57.126Z,66.10
2023-05-15T19:41:25.178Z,66.37
2023-05-15T19:43:54.351Z,66.20
2023-05-15T19:46:21.978Z,69.62
2023-05-15T19:48:49.910Z,65.74
2023-05-15T19:51:17.732Z,65.90
2023-05-15T19:53:45.707Z,66.46
2023-05-15T19:56:14.067Z,66.59
2023-05-15T19:58:41.838Z,66.61
2023-05-15T20:01:11.056Z,66.27
2023-05-15T20:03:39.163Z,66.32
2023-05-15T20:06:07.282Z,66.42
2023-05-15T20:08:35.182Z,66.38
2023-05-15T20:11:02.999Z,66.54
2023-05-15T20:13:31.403Z,66.60
2023-05-15T20:16:00.773Z,66.32
2023-05-15T20:18:33.023Z,66.57
2023-05-15T20:21:02.490Z,66.69
2023-05-15T20:23:30.384Z,66.32
2023-05-15T20:25:58.187Z,66.48
2023-05-15T20:28:27.209Z,66.41
2023-05-15T20:30:57.126Z,66.46
2023-05-15T20:33:25.522Z,66.49
2023-05-15T20:35:54.774Z,66.72
2023-05-15T20:38:24.184Z,68.83
2023-05-15T20:40:52.983Z,66.22
2023-05-15T20:43:20.879Z,66.69
2023-05-15T20:45:48.680Z,66.14
2023-05-15T20:48:16.577Z,67.12
2023-05-15T20:50:44.328Z,66.73
2023-05-15T20:53:13.498Z,66.53
2023-05-15T20:55:41.089Z,67.35
2023-05-15T20:58:08.835Z,66.01
2023-05-15T21:00:37.837Z,66.79
2023-05-15T21:03:06.069Z,66.90
2023-05-15T21:05:33.983Z,66.68
2023-05-15T21:08:01.752Z,66.91
2023-05-15T21:10:30.931Z,67.13
2023-05-15T21:12:59.551Z,69.12
2023-05-15T21:15:30.395Z,66.55
2023-05-15T21:17:58.215Z,66.37
2023-05-15T21:20:27.145Z,66.51
2023-05-15T21:22:55.082Z,66.78
2023-05-15T21:25:22.844Z,66.73
2023-05-15T21:27:52.012Z,66.68
2023-05-15T21:30:19.637Z,67.49
2023-05-15T21:32:47.454Z,66.91
2023-05-15T21:35:15.268Z,66.42
2023-05-15T21:37:44.419Z,66.92
2023-05-15T21:40:12.510Z,68.40
2023-05-15T21:42:40.744Z,66.30
2023-05-15T21:45:10.913Z,66.32
2023-05-15T21:47:38.676Z,66.72
2023-05-15T21:50:09.809Z,66.79
2023-05-15T21:52:37.520Z,67.07
2023-05-15T21:55:05.949Z,67.12
2023-05-15T21:57:33.741Z,67.63
2023-05-15T22:00:01.595Z,67.50
2023-05-15T22:02:30.750Z,67.67
2023-05-15T22:04:58.408Z,69.38
2023-05-15T22:07:26.205Z,68.69
2023-05-15T22:09:54.209Z,68.22
2023-05-15T22:12:22.205Z,68.76
2023-05-15T22:14:58.282Z,69.04
2023-05-15T22:17:27.196Z,69.46
2023-05-15T22:20:09.892Z,69.96
2023-05-15T22:22:37.952Z,69.74
2023-05-15T22:25:06.796Z,70.16
2023-05-15T22:27:34.772Z,70.10
2023-05-15T22:30:02.647Z,70.44
2023-05-15T22:32:30.794Z,70.47
2023-05-15T22:35:00.033Z,70.97
2023-05-15T22:37:27.622Z,74.36
2023-05-15T22:39:55.928Z,70.95
2023-05-15T22:42:23.987Z,71.66
2023-05-15T22:44:52.067Z,71.90
2023-05-15T22:47:20.005Z,71.61
2023-05-15T22:49:47.739Z,72.72
2023-05-15T22:52:18.623Z,72.11
2023-05-15T22:54:46.449Z,73.36
2023-05-15T22:57:14.175Z,73.13
2023-05-15T22:59:42.236Z,74.27
2023-05-15T23:02:10.025Z,74.67
2023-05-15T23:04:37.798Z,74.33
2023-05-15T23:07:06.114Z,74.52
2023-05-15T23:09:35.262Z,74.44
2023-05-15T23:12:04.375Z,75.87
2023-05-15T23:14:32.486Z,77.48
2023-05-15T23:17:00.287Z,74.98
2023-05-15T23:19:28.069Z,74.88
2023-05-15T23:21:55.915Z,74.63
2023-05-15T23:24:23.766Z,74.82
2023-05-15T23:26:52.870Z,75.20
2023-05-15T23:29:20.731Z,74.91
2023-05-15T23:31:48.694Z,75.19
2023-05-15T23:34:16.489Z,75.62
2023-05-15T23:36:44.200Z,75.40
2023-05-15T23:39:11.949Z,76.02
2023-05-15T23:41:39.737Z,75.94
2023-05-15T23:44:08.974Z,75.51
2023-05-15T23:46:38.049Z,77.74
2023-05-15T23:49:05.842Z,76.48
2023-05-15T23:51:33.603Z,75.86
2023-05-15T23:54:01.336Z,75.67
2023-05-15T23:56:29.234Z,75.57
2023-05-15T23:58:57.025Z,75.95
